Time;durP1;ratioP1;P1;durP2;ratioP2;P2;SDS_P1;SDS_P2;PMS_P1;PMS_P2;Temp;Humidity;BMP_temperature;BMP_pressure;BME280_temperature;BME280_humidity;BME280_pressure;Samples;Min_cycle;Max_cycle;Signal;HPM_P1;HPM_P2
2021/04/06 00:00:07;;;;;;;0.60;0.60;;;;;;;;;;5090570;28;20173;-63
2021/04/06 00:02:33;;;;;;;0.60;0.60;;;;;;;;;;5091124;28;20619;-63
2021/04/06 00:05:03;;;;;;;0.60;0.60;;;;;;;;;;5093279;28;20195;-61
2021/04/06 00:07:30;;;;;;;0.70;0.70;;;;;;;;;;5094720;28;20204;-63
2021/04/06 00:10:00;;;;;;;0.85;0.85;;;;;;;;;;5094242;28;20584;-62
2021/04/06 00:12:27;;;;;;;0.68;0.68;;;;;;;;;;5094921;28;20575;-63
2021/04/06 00:14:55;;;;;;;0.80;0.80;;;;;;;;;;5095040;28;20165;-63
2021/04/06 00:17:22;;;;;;;0.70;0.70;;;;;;;;;;5094776;28;20210;-63
2021/04/06 00:19:49;;;;;;;0.60;0.60;;;;;;;;;;5094140;28;20176;-63
2021/04/06 00:22:16;;;;;;;0.70;0.70;;;;;;;;;;5094843;28;20264;-62
2021/04/06 00:24:43;;;;;;;0.70;0.70;;;;;;;;;;5094537;28;20217;-61
2021/04/06 00:27:15;;;;;;;0.60;0.60;;;;;;;;;;5094700;28;20622;-63
2021/04/06 00:29:42;;;;;;;1.02;1.02;;;;;;;;;;5093910;28;20212;-62
2021/04/06 00:32:09;;;;;;;0.95;0.95;;;;;;;;;;5094220;28;20242;-63
2021/04/06 00:34:36;;;;;;;0.60;0.60;;;;;;;;;;5094663;28;20251;-64
2021/04/06 00:37:12;;;;;;;1.48;1.38;;;;;;;;;;5094459;28;20205;-63
2021/04/06 00:39:38;;;;;;;0.70;0.70;;;;;;;;;;5094087;28;20564;-64
2021/04/06 00:42:06;;;;;;;0.60;0.60;;;;;;;;;;5094675;28;20658;-64
2021/04/06 00:44:33;;;;;;;0.80;0.80;;;;;;;;;;5094435;28;20208;-64
2021/04/06 00:46:59;;;;;;;0.70;0.70;;;;;;;;;;5094420;28;20173;-64
2021/04/06 00:49:26;;;;;;;1.35;1.35;;;;;;;;;;5093666;28;20174;-63
2021/04/06 00:51:53;;;;;;;0.50;0.50;;;;;;;;;;5094148;28;20226;-63
2021/04/06 00:54:19;;;;;;;0.70;0.70;;;;;;;;;;5094087;28;20240;-63
2021/04/06 00:56:46;;;;;;;0.50;0.50;;;;;;;;;;5076103;28;20166;-63
2021/04/06 00:59:22;;;;;;;0.63;0.63;;;;;;;;;;5093533;28;20227;-63
2021/04/06 01:01:49;;;;;;;0.60;0.60;;;;;;;;;;5094185;28;20189;-64
2021/04/06 01:04:22;;;;;;;0.50;0.50;;;;;;;;;;5093892;28;20166;-64
2021/04/06 01:06:53;;;;;;;0.68;0.68;;;;;;;;;;5094111;28;20208;-64
2021/04/06 01:09:19;;;;;;;0.70;0.70;;;;;;;;;;5093751;28;20178;-64
2021/04/06 01:11:46;;;;;;;0.63;0.63;;;;;;;;;;5096406;28;20209;-62
2021/04/06 01:14:18;;;;;;;0.75;0.75;;;;;;;;;;5094454;28;20201;-64
2021/04/06 01:16:45;;;;;;;0.63;0.63;;;;;;;;;;5093926;28;20177;-64
2021/04/06 01:19:13;;;;;;;0.57;0.57;;;;;;;;;;5093049;28;20193;-64
2021/04/06 01:21:39;;;;;;;0.60;0.60;;;;;;;;;;5093667;28;20193;-64
2021/04/06 01:24:08;;;;;;;1.30;1.20;;;;;;;;;;5093611;28;20683;-64
2021/04/06 01:26:36;;;;;;;0.50;0.50;;;;;;;;;;5093691;28;20173;-64
2021/04/06 01:29:05;;;;;;;0.63;0.63;;;;;;;;;;5092842;28;20685;-64
2021/04/06 01:31:32;;;;;;;1.00;1.00;;;;;;;;;;5093570;28;20613;-64
2021/04/06 01:33:59;;;;;;;0.73;0.73;;;;;;;;;;5091687;28;20668;-64
2021/04/06 01:36:28;;;;;;;0.60;0.60;;;;;;;;;;5075428;28;20637;-63
2021/04/06 01:38:54;;;;;;;2.35;0.88;;;;;;;;;;5092706;28;20407;-63
2021/04/06 01:41:20;;;;;;;0.80;0.80;;;;;;;;;;5093143;28;20228;-63
2021/04/06 01:43:48;;;;;;;1.08;1.08;;;;;;;;;;5093296;28;20184;-63
2021/04/06 01:46:20;;;;;;;1.15;1.15;;;;;;;;;;5093204;28;20165;-63
2021/04/06 01:48:46;;;;;;;0.50;0.50;;;;;;;;;;5092663;28;20188;-63
2021/04/06 01:51:13;;;;;;;1.10;1.10;;;;;;;;;;5092987;28;20192;-63
2021/04/06 01:53:41;;;;;;;0.70;0.70;;;;;;;;;;5092896;28;20211;-63
2021/04/06 01:56:15;;;;;;;0.60;0.60;;;;;;;;;;5093111;28;20206;-63
2021/04/06 01:58:46;;;;;;;1.55;1.45;;;;;;;;;;5092922;28;20263;-63
2021/04/06 02:06:25;;;;;;;0.68;0.68;;;;;;;;;;5092586;28;20264;-63
2021/04/06 02:08:51;;;;;;;0.70;0.70;;;;;;;;;;5092205;28;20185;-62
2021/04/06 02:11:26;;;;;;;3.65;0.80;;;;;;;;;;5092729;28;20212;-63
2021/04/06 02:13:52;;;;;;;1.13;1.13;;;;;;;;;;5074451;28;20549;-63
2021/04/06 02:16:18;;;;;;;0.90;0.90;;;;;;;;;;5074436;28;20259;-63
2021/04/06 02:18:51;;;;;;;1.35;1.25;;;;;;;;;;5091943;28;20173;-63
2021/04/06 02:21:17;;;;;;;0.80;0.80;;;;;;;;;;5092489;28;20565;-63
2021/04/06 02:23:46;;;;;;;0.80;0.80;;;;;;;;;;5092737;28;20177;-63
2021/04/06 02:26:13;;;;;;;0.50;0.50;;;;;;;;;;5092527;28;20174;-63
2021/04/06 02:28:39;;;;;;;0.68;0.68;;;;;;;;;;5091806;28;20209;-62
2021/04/06 02:31:05;;;;;;;1.15;1.15;;;;;;;;;;5091779;28;20198;-63
2021/04/06 02:33:36;;;;;;;0.60;0.60;;;;;;;;;;5092585;28;20610;-63
2021/04/06 02:36:03;;;;;;;0.95;0.95;;;;;;;;;;5092286;28;20644;-63
2021/04/06 02:38:30;;;;;;;0.55;0.55;;;;;;;;;;5092137;28;20243;-63
2021/04/06 02:41:07;;;;;;;0.70;0.70;;;;;;;;;;5091555;28;20198;-63
2021/04/06 02:43:48;;;;;;;0.50;0.50;;;;;;;;;;5092012;28;20182;-63
2021/04/06 02:46:16;;;;;;;1.00;0.90;;;;;;;;;;5092036;28;20170;-63
2021/04/06 02:48:42;;;;;;;0.50;0.50;;;;;;;;;;5073621;28;20174;-63
2021/04/06 02:51:09;;;;;;;0.57;0.57;;;;;;;;;;5091570;28;20220;-62
2021/04/06 02:53:36;;;;;;;0.50;0.50;;;;;;;;;;5092007;28;20262;-63
2021/04/06 02:56:02;;;;;;;0.80;0.80;;;;;;;;;;5091975;28;20174;-62
2021/04/06 02:58:34;;;;;;;0.60;0.60;;;;;;;;;;5073585;28;20177;-63
2021/04/06 03:01:11;;;;;;;0.82;0.82;;;;;;;;;;5091139;28;20220;-63
2021/04/06 03:03:37;;;;;;;0.60;0.60;;;;;;;;;;5073795;28;20209;-62
2021/04/06 03:06:14;;;;;;;0.70;0.70;;;;;;;;;;5073870;28;20197;-63
2021/04/06 03:08:40;;;;;;;0.90;0.90;;;;;;;;;;5091483;28;20695;-61
2021/04/06 03:11:07;;;;;;;0.60;0.60;;;;;;;;;;5090925;28;20217;-63
2021/04/06 03:13:33;;;;;;;0.70;0.70;;;;;;;;;;5092352;28;20212;-63
2021/04/06 03:16:02;;;;;;;0.80;0.80;;;;;;;;;;5094593;28;20180;-63
2021/04/06 03:18:35;;;;;;;1.40;0.98;;;;;;;;;;5092430;28;20177;-63
2021/04/06 03:21:03;;;;;;;0.60;0.60;;;;;;;;;;5090931;28;20264;-61
2021/04/06 03:23:29;;;;;;;0.70;0.70;;;;;;;;;;5073731;28;20195;-63
2021/04/06 03:25:55;;;;;;;0.95;0.95;;;;;;;;;;5091727;28;20174;-62
2021/04/06 03:28:30;;;;;;;0.50;0.50;;;;;;;;;;5091632;28;20256;-63
2021/04/06 03:31:04;;;;;;;0.60;0.60;;;;;;;;;;5072889;28;20204;-63
2021/04/06 03:33:30;;;;;;;0.65;0.65;;;;;;;;;;5091883;28;20242;-63
2021/04/06 03:35:56;;;;;;;0.70;0.70;;;;;;;;;;5091668;28;20204;-63
2021/04/06 03:38:22;;;;;;;1.05;1.05;;;;;;;;;;5091804;28;20181;-63
2021/04/06 03:40:48;;;;;;;0.90;0.90;;;;;;;;;;5094523;28;20671;-63
2021/04/06 03:43:15;;;;;;;0.85;0.85;;;;;;;;;;5095683;28;20178;-63
2021/04/06 03:45:53;;;;;;;0.70;0.70;;;;;;;;;;5095590;28;20181;-62
2021/04/06 03:48:20;;;;;;;0.60;0.60;;;;;;;;;;5095308;28;20173;-63
2021/04/06 03:50:46;;;;;;;0.70;0.70;;;;;;;;;;5094752;28;20193;-63
2021/04/06 03:53:12;;;;;;;0.70;0.70;;;;;;;;;;5095707;28;20229;-63
2021/04/06 03:55:39;;;;;;;0.70;0.70;;;;;;;;;;5095424;28;20178;-63
2021/04/06 03:58:13;;;;;;;0.73;0.73;;;;;;;;;;5077117;28;20176;-62
2021/04/06 04:00:40;;;;;;;0.70;0.70;;;;;;;;;;5095028;28;20184;-63
2021/04/06 04:03:06;;;;;;;0.95;0.95;;;;;;;;;;5095270;28;20181;-62
2021/04/06 04:05:32;;;;;;;0.80;0.80;;;;;;;;;;5095040;28;20178;-63
2021/04/06 04:07:58;;;;;;;0.80;0.80;;;;;;;;;;5095100;28;20567;-63
2021/04/06 04:10:25;;;;;;;0.80;0.80;;;;;;;;;;5094127;28;20177;-63
2021/04/06 04:12:51;;;;;;;0.70;0.70;;;;;;;;;;5115308;22;20229;-64
2021/04/06 04:15:18;;;;;;;1.38;1.27;;;;;;;;;;5076622;28;20238;-64
2021/04/06 04:17:47;;;;;;;1.17;1.08;;;;;;;;;;5094746;28;20173;-64
2021/04/06 04:20:14;;;;;;;0.70;0.70;;;;;;;;;;5093792;28;20201;-64
2021/04/06 04:22:40;;;;;;;0.98;0.98;;;;;;;;;;5078556;28;20281;-64
2021/04/06 04:25:07;;;;;;;0.60;0.60;;;;;;;;;;5074264;28;20549;-63
2021/04/06 04:27:33;;;;;;;0.70;0.70;;;;;;;;;;5065963;28;20263;-64
2021/04/06 04:29:59;;;;;;;1.13;1.13;;;;;;;;;;5073725;28;20226;-64
2021/04/06 04:32:25;;;;;;;0.60;0.60;;;;;;;;;;5074301;28;20683;-64
2021/04/06 04:34:51;;;;;;;1.00;1.00;;;;;;;;;;5074491;28;20210;-64
2021/04/06 04:37:17;;;;;;;0.68;0.68;;;;;;;;;;5074326;28;20178;-64
2021/04/06 04:39:43;;;;;;;0.80;0.80;;;;;;;;;;5073357;28;20227;-64
2021/04/06 04:42:10;;;;;;;0.63;0.63;;;;;;;;;;5073768;28;20609;-64
2021/04/06 04:44:36;;;;;;;0.80;0.80;;;;;;;;;;5073619;28;20193;-64
2021/04/06 04:47:02;;;;;;;0.60;0.60;;;;;;;;;;5073876;28;20183;-64
2021/04/06 04:49:28;;;;;;;0.90;0.90;;;;;;;;;;5073166;28;20216;-64
2021/04/06 04:51:54;;;;;;;1.40;1.13;;;;;;;;;;5055341;28;20217;-64
2021/04/06 04:54:20;;;;;;;1.08;0.85;;;;;;;;;;5073281;28;20202;-64
2021/04/06 04:56:46;;;;;;;0.60;0.60;;;;;;;;;;5054340;28;20178;-64
2021/04/06 04:59:12;;;;;;;1.35;1.35;;;;;;;;;;5073289;28;20200;-64
2021/04/06 05:01:39;;;;;;;1.67;1.50;;;;;;;;;;5073310;28;20701;-64
2021/04/06 05:04:05;;;;;;;0.70;0.70;;;;;;;;;;5072180;28;20211;-64
2021/04/06 05:06:31;;;;;;;1.13;1.02;;;;;;;;;;5073740;28;20177;-64
2021/04/06 05:08:58;;;;;;;0.60;0.60;;;;;;;;;;5072594;28;20166;-64
2021/04/06 05:11:24;;;;;;;1.35;1.15;;;;;;;;;;5073034;28;20209;-64
2021/04/06 05:13:52;;;;;;;0.70;0.70;;;;;;;;;;5069042;28;20198;-64
2021/04/06 05:16:18;;;;;;;0.70;0.70;;;;;;;;;;5073373;28;20190;-64
2021/04/06 05:18:44;;;;;;;0.60;0.60;;;;;;;;;;5072514;28;20182;-63
2021/04/06 05:21:10;;;;;;;0.70;0.70;;;;;;;;;;5073269;28;20665;-64
2021/04/06 05:23:36;;;;;;;0.80;0.80;;;;;;;;;;5073036;28;20232;-64
2021/04/06 05:26:02;;;;;;;0.60;0.60;;;;;;;;;;5073336;28;20243;-64
2021/04/06 05:28:28;;;;;;;0.70;0.70;;;;;;;;;;5072449;28;20278;-63
2021/04/06 05:30:55;;;;;;;1.55;0.85;;;;;;;;;;5075609;28;20242;-64
2021/04/06 05:33:22;;;;;;;1.00;1.00;;;;;;;;;;5070842;28;20271;-64
2021/04/06 05:35:48;;;;;;;0.60;0.60;;;;;;;;;;5072406;28;20267;-64
2021/04/06 05:38:14;;;;;;;1.15;1.15;;;;;;;;;;5072888;28;20216;-64
2021/04/06 05:40:40;;;;;;;0.70;0.70;;;;;;;;;;5071544;28;20270;-64
2021/04/06 05:43:06;;;;;;;0.65;0.65;;;;;;;;;;5072684;28;20616;-64
2021/04/06 05:45:33;;;;;;;0.80;0.80;;;;;;;;;;5072951;28;20542;-63
2021/04/06 05:48:01;;;;;;;0.55;0.55;;;;;;;;;;5072574;28;20595;-63
2021/04/06 05:50:27;;;;;;;0.50;0.50;;;;;;;;;;5033649;28;20270;-62
2021/04/06 05:52:54;;;;;;;0.70;0.70;;;;;;;;;;5062882;28;20275;-64
2021/04/06 05:55:20;;;;;;;0.80;0.80;;;;;;;;;;5065087;28;20217;-64
2021/04/06 05:57:46;;;;;;;0.60;0.60;;;;;;;;;;5074845;28;20280;-64
2021/04/06 06:00:13;;;;;;;0.82;0.82;;;;;;;;;;5091913;28;20584;-64
2021/04/06 06:02:39;;;;;;;0.50;0.50;;;;;;;;;;5091900;28;20204;-64
2021/04/06 06:05:08;;;;;;;0.60;0.60;;;;;;;;;;5092904;28;20226;-64
2021/04/06 06:07:34;;;;;;;0.50;0.50;;;;;;;;;;5092767;28;20203;-64
2021/04/06 06:10:19;;;;;;;0.98;0.98;;;;;;;;;;5092131;28;20166;-64
2021/04/06 06:12:45;;;;;;;0.73;0.73;;;;;;;;;;5092297;28;20263;-64
2021/04/06 06:15:12;;;;;;;0.57;0.57;;;;;;;;;;5092847;28;20205;-64
2021/04/06 06:17:38;;;;;;;0.50;0.50;;;;;;;;;;5092661;28;20640;-64
2021/04/06 06:20:14;;;;;;;0.60;0.60;;;;;;;;;;5092172;28;20218;-64
2021/04/06 06:22:40;;;;;;;0.60;0.60;;;;;;;;;;5092273;28;20228;-64
2021/04/06 06:25:11;;;;;;;0.90;0.90;;;;;;;;;;5092384;28;20536;-64
2021/04/06 06:27:43;;;;;;;0.60;0.60;;;;;;;;;;5092765;28;20177;-64
2021/04/06 06:30:28;;;;;;;0.70;0.70;;;;;;;;;;5086840;28;20201;-64
2021/04/06 06:33:13;;;;;;;0.50;0.50;;;;;;;;;;5069180;28;20858;-64
2021/04/06 06:35:40;;;;;;;0.52;0.52;;;;;;;;;;5065626;28;20178;-64
2021/04/06 06:38:15;;;;;;;0.80;0.80;;;;;;;;;;5071308;28;20214;-64
2021/04/06 06:40:42;;;;;;;0.60;0.60;;;;;;;;;;5068876;28;20183;-64
2021/04/06 06:43:10;;;;;;;0.80;0.80;;;;;;;;;;5070048;28;20256;-64
2021/04/06 06:45:36;;;;;;;0.80;0.80;;;;;;;;;;5065248;28;20264;-65
2021/04/06 06:48:02;;;;;;;0.70;0.70;;;;;;;;;;5068643;28;20598;-64
2021/04/06 06:50:28;;;;;;;0.70;0.70;;;;;;;;;;5070757;28;20261;-64
2021/04/06 06:52:54;;;;;;;0.75;0.75;;;;;;;;;;5053372;28;20201;-65
2021/04/06 06:55:23;;;;;;;0.50;0.50;;;;;;;;;;5071616;28;20178;-65
2021/04/06 06:57:50;;;;;;;1.17;1.02;;;;;;;;;;5052062;28;20232;-65
2021/04/06 07:00:22;;;;;;;0.60;0.60;;;;;;;;;;5052564;28;20186;-65
2021/04/06 07:02:48;;;;;;;0.50;0.50;;;;;;;;;;5071475;28;20970;-64
2021/04/06 07:05:17;;;;;;;0.65;0.65;;;;;;;;;;5071304;28;20186;-65
2021/04/06 07:08:03;;;;;;;1.85;1.60;;;;;;;;;;5071051;28;20174;-65
2021/04/06 07:10:31;;;;;;;0.80;0.80;;;;;;;;;;5056155;28;20256;-64
2021/04/06 07:13:08;;;;;;;0.55;0.55;;;;;;;;;;5070124;28;20339;-65
2021/04/06 07:15:41;;;;;;;0.60;0.60;;;;;;;;;;5070991;28;20232;-64
2021/04/06 07:18:13;;;;;;;2.47;0.73;;;;;;;;;;5052142;28;20174;-65
2021/04/06 07:20:41;;;;;;;1.02;1.02;;;;;;;;;;5068719;28;20536;-65
2021/04/06 07:23:09;;;;;;;0.60;0.60;;;;;;;;;;5070082;28;20201;-65
2021/04/06 07:25:35;;;;;;;0.70;0.70;;;;;;;;;;5070586;28;20646;-65
2021/04/06 07:28:02;;;;;;;0.60;0.60;;;;;;;;;;5070494;28;20222;-65
2021/04/06 07:30:28;;;;;;;0.93;0.93;;;;;;;;;;5068341;28;20175;-65
2021/04/06 07:32:56;;;;;;;1.10;1.00;;;;;;;;;;5069627;28;20230;-65
2021/04/06 07:35:22;;;;;;;1.15;1.15;;;;;;;;;;5070167;28;20183;-65
2021/04/06 07:37:48;;;;;;;0.57;0.57;;;;;;;;;;5070374;28;20171;-65
2021/04/06 07:40:19;;;;;;;0.70;0.70;;;;;;;;;;5069591;28;20191;-65
2021/04/06 07:42:46;;;;;;;0.60;0.60;;;;;;;;;;5068898;28;20194;-65
2021/04/06 07:45:24;;;;;;;0.60;0.60;;;;;;;;;;5070213;28;20661;-65
2021/04/06 07:47:53;;;;;;;0.50;0.50;;;;;;;;;;5070483;28;20202;-64
2021/04/06 07:50:42;;;;;;;0.52;0.52;;;;;;;;;;5069793;28;20203;-64
2021/04/06 07:53:21;;;;;;;3.70;1.63;;;;;;;;;;5058532;28;20256;-64
2021/04/06 07:55:47;;;;;;;0.60;0.60;;;;;;;;;;5070103;28;20250;-63
2021/04/06 07:58:32;;;;;;;0.50;0.50;;;;;;;;;;5070016;28;20176;-64
2021/04/06 08:01:06;;;;;;;0.93;0.93;;;;;;;;;;5068871;28;20220;-64
2021/04/06 08:03:50;;;;;;;0.70;0.70;;;;;;;;;;5069642;28;20175;-64
2021/04/06 08:06:19;;;;;;;1.05;1.05;;;;;;;;;;5068161;28;20551;-63
2021/04/06 08:08:46;;;;;;;1.45;1.35;;;;;;;;;;5066230;28;20205;-62
2021/04/06 08:11:12;;;;;;;0.50;0.50;;;;;;;;;;5067919;28;21884;-65
2021/04/06 08:13:38;;;;;;;0.50;0.50;;;;;;;;;;5068351;28;20681;-63
2021/04/06 08:16:31;;;;;;;0.40;0.40;;;;;;;;;;5066759;28;20178;-63
2021/04/06 08:19:04;;;;;;;6.40;1.70;;;;;;;;;;5065051;28;20191;-63
2021/04/06 08:21:30;;;;;;;0.80;0.80;;;;;;;;;;5069562;28;20187;-63
2021/04/06 08:23:56;;;;;;;0.60;0.60;;;;;;;;;;5069590;28;20176;-63
2021/04/06 08:26:30;;;;;;;0.60;0.60;;;;;;;;;;5069823;28;20595;-62
2021/04/06 08:28:57;;;;;;;0.50;0.50;;;;;;;;;;5068348;28;20592;-63
2021/04/06 08:31:30;;;;;;;0.50;0.50;;;;;;;;;;5073033;28;20245;-63
2021/04/06 08:34:15;;;;;;;0.70;0.70;;;;;;;;;;5054852;28;20203;-64
2021/04/06 08:36:41;;;;;;;0.43;0.43;;;;;;;;;;5072804;28;20179;-63
2021/04/06 08:39:07;;;;;;;0.50;0.50;;;;;;;;;;5071231;28;20182;-63
2021/04/06 08:41:34;;;;;;;0.50;0.50;;;;;;;;;;5070876;28;20480;-63
2021/04/06 08:44:04;;;;;;;0.82;0.82;;;;;;;;;;5070160;28;20183;-63
2021/04/06 08:46:35;;;;;;;0.50;0.50;;;;;;;;;;5070894;28;20553;-63
2021/04/06 08:49:01;;;;;;;0.70;0.70;;;;;;;;;;5069951;28;20183;-63
2021/04/06 08:51:27;;;;;;;1.50;0.93;;;;;;;;;;5071753;28;20195;-63
2021/04/06 08:53:55;;;;;;;0.67;0.67;;;;;;;;;;5072787;28;20218;-63
2021/04/06 08:56:28;;;;;;;0.80;0.80;;;;;;;;;;5073058;28;20408;-63
2021/04/06 08:59:13;;;;;;;0.50;0.50;;;;;;;;;;5046874;28;20278;-63
2021/04/06 09:01:39;;;;;;;0.70;0.70;;;;;;;;;;5066286;28;20339;-63
2021/04/06 09:04:09;;;;;;;0.60;0.60;;;;;;;;;;5072813;28;20258;-63
2021/04/06 09:06:35;;;;;;;1.10;1.08;;;;;;;;;;5072588;28;20179;-63
2021/04/06 09:09:01;;;;;;;0.50;0.50;;;;;;;;;;5071806;28;20221;-64
2021/04/06 09:11:27;;;;;;;0.50;0.50;;;;;;;;;;5070925;28;20207;-64
2021/04/06 09:13:54;;;;;;;0.60;0.60;;;;;;;;;;5072102;28;20257;-63
2021/04/06 09:16:23;;;;;;;0.75;0.60;;;;;;;;;;5071513;28;20221;-64
2021/04/06 09:18:53;;;;;;;0.70;0.70;;;;;;;;;;5071794;28;20660;-64
2021/04/06 09:21:21;;;;;;;0.73;0.73;;;;;;;;;;5072135;28;20202;-63
2021/04/06 09:23:50;;;;;;;0.50;0.50;;;;;;;;;;5052849;28;20617;-63
2021/04/06 09:26:16;;;;;;;0.90;0.90;;;;;;;;;;5071688;28;20214;-63
2021/04/06 09:28:42;;;;;;;1.40;1.30;;;;;;;;;;5072102;28;20205;-63
2021/04/06 09:31:08;;;;;;;0.70;0.70;;;;;;;;;;5071463;28;20199;-64
2021/04/06 09:33:35;;;;;;;0.60;0.60;;;;;;;;;;5051975;28;20206;-64
2021/04/06 09:36:01;;;;;;;0.40;0.40;;;;;;;;;;5053681;28;20171;-64
2021/04/06 09:38:28;;;;;;;0.60;0.60;;;;;;;;;;5070938;28;20225;-64
2021/04/06 09:40:54;;;;;;;0.50;0.50;;;;;;;;;;5071335;28;20190;-64
2021/04/06 09:43:20;;;;;;;0.55;0.55;;;;;;;;;;5072169;28;20250;-64
2021/04/06 09:45:50;;;;;;;0.75;0.75;;;;;;;;;;5070726;28;20171;-64
2021/04/06 09:48:17;;;;;;;0.50;0.50;;;;;;;;;;5072024;28;20198;-63
2021/04/06 09:50:55;;;;;;;0.50;0.50;;;;;;;;;;5070270;28;20650;-64
2021/04/06 09:53:22;;;;;;;0.75;0.75;;;;;;;;;;5071740;28;20213;-64
2021/04/06 09:55:48;;;;;;;0.60;0.60;;;;;;;;;;5071001;28;20203;-64
2021/04/06 09:58:14;;;;;;;1.02;1.00;;;;;;;;;;5071628;28;20169;-64
2021/04/06 10:00:43;;;;;;;0.60;0.60;;;;;;;;;;5071275;28;20530;-64
2021/04/06 10:03:14;;;;;;;0.60;0.60;;;;;;;;;;5071914;28;20199;-63
2021/04/06 10:05:43;;;;;;;0.50;0.50;;;;;;;;;;5072537;28;20175;-63
2021/04/06 10:08:09;;;;;;;0.50;0.50;;;;;;;;;;5071076;28;20194;-65
2021/04/06 10:10:36;;;;;;;1.45;0.80;;;;;;;;;;5053846;28;20176;-64
2021/04/06 10:13:02;;;;;;;0.70;0.70;;;;;;;;;;5073255;28;20234;-64
2021/04/06 10:15:30;;;;;;;0.75;0.75;;;;;;;;;;5072073;28;20693;-64
2021/04/06 10:17:56;;;;;;;0.52;0.52;;;;;;;;;;5071190;28;20167;-64
2021/04/06 10:20:26;;;;;;;0.80;0.80;;;;;;;;;;5070173;28;20643;-64
2021/04/06 10:22:54;;;;;;;0.65;0.65;;;;;;;;;;5071582;28;20265;-64
2021/04/06 10:25:21;;;;;;;0.70;0.70;;;;;;;;;;5071219;28;20182;-64
2021/04/06 10:27:52;;;;;;;0.47;0.47;;;;;;;;;;5070924;28;20174;-64
2021/04/06 10:30:26;;;;;;;0.60;0.60;;;;;;;;;;5069584;28;20167;-64
2021/04/06 10:32:52;;;;;;;0.60;0.60;;;;;;;;;;5071028;28;20195;-64
2021/04/06 10:35:24;;;;;;;0.50;0.50;;;;;;;;;;5071277;28;20182;-64
2021/04/06 10:37:51;;;;;;;0.50;0.50;;;;;;;;;;5071127;28;20191;-64
2021/04/06 10:40:23;;;;;;;0.85;0.85;;;;;;;;;;5069069;28;20176;-64
2021/04/06 10:42:50;;;;;;;0.50;0.50;;;;;;;;;;5070989;28;20249;-64
2021/04/06 10:45:17;;;;;;;1.02;1.02;;;;;;;;;;5071175;28;20179;-64
2021/04/06 10:47:43;;;;;;;0.60;0.60;;;;;;;;;;5070759;28;20539;-64
2021/04/06 10:50:09;;;;;;;0.80;0.80;;;;;;;;;;5070465;28;20221;-64
2021/04/06 10:52:35;;;;;;;1.80;1.70;;;;;;;;;;5069640;28;20477;-65
2021/04/06 10:55:03;;;;;;;0.65;0.65;;;;;;;;;;5071761;28;20587;-65
2021/04/06 10:57:30;;;;;;;1.90;1.17;;;;;;;;;;5070942;28;20170;-65
2021/04/06 10:59:56;;;;;;;0.50;0.50;;;;;;;;;;5069880;28;20175;-65
2021/04/06 11:02:24;;;;;;;0.63;0.63;;;;;;;;;;5070259;28;20242;-65
2021/04/06 11:04:50;;;;;;;0.50;0.50;;;;;;;;;;5069208;28;20235;-65
2021/04/06 11:07:26;;;;;;;1.00;1.00;;;;;;;;;;5071856;28;20186;-65
2021/04/06 11:09:52;;;;;;;0.80;0.60;;;;;;;;;;5072954;28;20175;-65
2021/04/06 11:12:18;;;;;;;0.60;0.60;;;;;;;;;;5071872;28;20271;-64
2021/04/06 11:14:46;;;;;;;0.40;0.40;;;;;;;;;;5069254;28;20201;-64
2021/04/06 11:17:13;;;;;;;0.70;0.70;;;;;;;;;;5071490;28;20218;-65
2021/04/06 11:19:40;;;;;;;1.13;0.90;;;;;;;;;;5070922;28;20234;-64
2021/04/06 11:22:14;;;;;;;0.70;0.68;;;;;;;;;;5070242;28;20193;-65
2021/04/06 11:24:41;;;;;;;0.50;0.50;;;;;;;;;;5074038;28;20177;-64
2021/04/06 11:27:09;;;;;;;0.60;0.60;;;;;;;;;;5066588;28;20218;-64
2021/04/06 11:29:36;;;;;;;0.70;0.70;;;;;;;;;;5049829;28;20172;-64
2021/04/06 11:32:04;;;;;;;0.88;0.68;;;;;;;;;;5050291;28;20735;-64
2021/04/06 11:34:30;;;;;;;1.17;1.17;;;;;;;;;;5050503;28;20566;-65
2021/04/06 11:36:57;;;;;;;1.15;1.15;;;;;;;;;;5049332;28;20213;-65
2021/04/06 11:39:25;;;;;;;0.90;0.90;;;;;;;;;;5049556;28;20631;-65
2021/04/06 11:41:51;;;;;;;0.70;0.70;;;;;;;;;;5050652;28;20234;-65
2021/04/06 11:44:18;;;;;;;0.57;0.57;;;;;;;;;;5051733;28;20183;-64
2021/04/06 11:46:44;;;;;;;0.63;0.63;;;;;;;;;;5051305;28;20704;-65
2021/04/06 11:49:11;;;;;;;0.90;0.73;;;;;;;;;;5050436;28;20315;-64
2021/04/06 11:51:38;;;;;;;1.30;0.90;;;;;;;;;;5050673;28;20249;-64
2021/04/06 11:54:05;;;;;;;0.40;0.40;;;;;;;;;;5051051;28;20277;-65
2021/04/06 11:56:31;;;;;;;1.13;1.02;;;;;;;;;;5050570;28;20479;-65
2021/04/06 11:58:57;;;;;;;0.82;0.82;;;;;;;;;;5050088;28;20615;-64
2021/04/06 12:01:23;;;;;;;1.05;1.05;;;;;;;;;;5035526;28;20609;-66
2021/04/06 12:03:49;;;;;;;0.50;0.50;;;;;;;;;;5054237;28;20178;-65
2021/04/06 12:06:15;;;;;;;0.50;0.50;;;;;;;;;;5054130;28;20168;-64
2021/04/06 12:08:42;;;;;;;1.58;0.80;;;;;;;;;;5053761;28;20588;-64
2021/04/06 12:11:08;;;;;;;0.50;0.50;;;;;;;;;;5035652;28;20552;-64
2021/04/06 12:13:34;;;;;;;0.60;0.60;;;;;;;;;;5054040;28;20235;-64
2021/04/06 12:16:00;;;;;;;0.50;0.50;;;;;;;;;;5053494;28;20202;-64
2021/04/06 12:18:27;;;;;;;0.70;0.70;;;;;;;;;;5053677;28;20214;-66
2021/04/06 12:20:53;;;;;;;0.70;0.70;;;;;;;;;;5052988;28;20928;-65
2021/04/06 12:23:19;;;;;;;0.50;0.50;;;;;;;;;;5053499;28;20204;-64
2021/04/06 12:25:45;;;;;;;1.13;1.13;;;;;;;;;;5053717;28;20234;-65
2021/04/06 12:28:11;;;;;;;0.90;0.85;;;;;;;;;;5053193;28;20179;-64
2021/04/06 12:30:37;;;;;;;2.13;1.23;;;;;;;;;;5052580;28;20163;-65
2021/04/06 12:33:03;;;;;;;0.70;0.70;;;;;;;;;;5053178;28;20193;-65
2021/04/06 12:35:29;;;;;;;1.27;1.08;;;;;;;;;;5053364;28;20402;-64
2021/04/06 12:37:56;;;;;;;0.40;0.40;;;;;;;;;;5053453;28;20661;-64
2021/04/06 12:40:22;;;;;;;0.52;0.52;;;;;;;;;;5052383;28;20171;-64
2021/04/06 12:42:48;;;;;;;0.60;0.60;;;;;;;;;;5053172;28;20629;-65
2021/04/06 12:45:16;;;;;;;0.67;0.60;;;;;;;;;;5053209;28;20179;-65
2021/04/06 12:47:42;;;;;;;0.40;0.40;;;;;;;;;;5053211;28;20416;-65
2021/04/06 12:50:08;;;;;;;0.90;0.90;;;;;;;;;;5052518;28;20306;-64
2021/04/06 12:52:34;;;;;;;0.50;0.50;;;;;;;;;;5052754;28;20601;-64
2021/04/06 12:55:00;;;;;;;0.68;0.65;;;;;;;;;;5052938;28;20215;-64
2021/04/06 12:57:26;;;;;;;0.40;0.40;;;;;;;;;;5052760;28;20802;-64
2021/04/06 12:59:53;;;;;;;0.40;0.40;;;;;;;;;;5052138;28;20409;-64
2021/04/06 13:02:19;;;;;;;0.40;0.40;;;;;;;;;;5052355;28;20194;-64
2021/04/06 13:04:45;;;;;;;0.40;0.40;;;;;;;;;;5052777;28;20175;-64
2021/04/06 13:07:11;;;;;;;0.60;0.60;;;;;;;;;;5053148;28;20920;-64
2021/04/06 13:09:37;;;;;;;1.00;1.00;;;;;;;;;;5052625;28;20174;-64
2021/04/06 13:12:04;;;;;;;0.47;0.47;;;;;;;;;;5052831;28;20208;-64
2021/04/06 13:14:30;;;;;;;0.52;0.52;;;;;;;;;;5053432;28;20695;-64
2021/04/06 13:16:56;;;;;;;0.80;0.80;;;;;;;;;;5052874;28;20176;-64
2021/04/06 13:19:22;;;;;;;0.40;0.40;;;;;;;;;;5053237;28;20755;-64
2021/04/06 13:21:48;;;;;;;0.50;0.50;;;;;;;;;;5052916;28;20205;-65
2021/04/06 13:24:16;;;;;;;0.50;0.50;;;;;;;;;;5053148;28;20174;-64
2021/04/06 13:26:42;;;;;;;0.40;0.40;;;;;;;;;;5052746;28;20184;-64
2021/04/06 13:29:09;;;;;;;0.50;0.50;;;;;;;;;;5052123;28;20170;-64
2021/04/06 13:31:35;;;;;;;0.85;0.85;;;;;;;;;;5052826;28;20572;-64
2021/04/06 13:34:02;;;;;;;0.75;0.75;;;;;;;;;;5052801;28;20202;-64
2021/04/06 13:36:28;;;;;;;1.15;0.85;;;;;;;;;;5052495;28;20178;-64
2021/04/06 13:38:54;;;;;;;0.60;0.60;;;;;;;;;;5051953;28;20164;-64
2021/04/06 13:41:20;;;;;;;0.70;0.70;;;;;;;;;;5034496;28;20435;-64
2021/04/06 13:43:46;;;;;;;0.77;0.77;;;;;;;;;;5052604;28;20416;-64
2021/04/06 13:46:12;;;;;;;0.98;0.75;;;;;;;;;;5052842;28;20175;-64
2021/04/06 13:48:38;;;;;;;0.60;0.60;;;;;;;;;;5052617;28;20244;-64
2021/04/06 13:51:04;;;;;;;0.90;0.73;;;;;;;;;;5051932;28;20601;-64
2021/04/06 13:53:31;;;;;;;0.50;0.50;;;;;;;;;;5052318;28;20200;-64
2021/04/06 13:55:57;;;;;;;0.50;0.50;;;;;;;;;;5052021;28;20187;-64
2021/04/06 13:58:23;;;;;;;0.50;0.50;;;;;;;;;;5052138;28;20172;-64
2021/04/06 14:00:50;;;;;;;0.67;0.67;;;;;;;;;;5052022;28;20176;-63
2021/04/06 14:03:16;;;;;;;0.45;0.45;;;;;;;;;;5052324;28;20409;-67
2021/04/06 14:05:43;;;;;;;0.50;0.50;;;;;;;;;;5052597;28;20540;-64
2021/04/06 14:08:09;;;;;;;0.80;0.80;;;;;;;;;;5034360;28;20180;-63
2021/04/06 14:10:36;;;;;;;0.63;0.63;;;;;;;;;;5051536;28;20200;-64
2021/04/06 14:13:03;;;;;;;0.52;0.52;;;;;;;;;;5052145;28;20218;-64
2021/04/06 14:15:29;;;;;;;0.50;0.50;;;;;;;;;;5052168;28;20262;-64
2021/04/06 14:17:55;;;;;;;0.50;0.50;;;;;;;;;;5051786;28;20176;-63
2021/04/06 14:20:26;;;;;;;0.68;0.68;;;;;;;;;;5051287;28;20176;-64
2021/04/06 14:22:52;;;;;;;0.50;0.50;;;;;;;;;;5051355;28;20211;-64
2021/04/06 14:25:19;;;;;;;1.10;1.10;;;;;;;;;;5051913;28;20214;-64
2021/04/06 14:27:47;;;;;;;0.60;0.60;;;;;;;;;;5051864;28;20262;-64
2021/04/06 14:30:14;;;;;;;1.65;1.55;;;;;;;;;;5050773;28;20176;-64
2021/04/06 14:32:41;;;;;;;0.50;0.50;;;;;;;;;;5051932;28;20559;-64
2021/04/06 14:35:07;;;;;;;0.60;0.60;;;;;;;;;;5051666;28;20246;-64
2021/04/06 14:37:33;;;;;;;0.93;0.93;;;;;;;;;;5051759;28;20176;-64
2021/04/06 14:39:59;;;;;;;0.50;0.50;;;;;;;;;;5051126;28;20243;-64
2021/04/06 14:42:25;;;;;;;0.80;0.80;;;;;;;;;;5051364;28;20218;-64
2021/04/06 14:44:51;;;;;;;0.50;0.50;;;;;;;;;;5051869;28;20402;-64
2021/04/06 14:47:17;;;;;;;0.70;0.70;;;;;;;;;;5033953;28;20191;-64
2021/04/06 14:49:43;;;;;;;0.50;0.50;;;;;;;;;;5050990;28;20173;-64
2021/04/06 14:52:12;;;;;;;0.75;0.75;;;;;;;;;;5051574;28;20205;-64